createdAt,value
2017-11-29T00:00:10.530Z,10.23
2017-11-29T00:00:43.642Z,5.80
2017-11-29T00:01:17.385Z,6.68
2017-11-29T00:01:51.882Z,8.52
2017-11-29T00:02:26.381Z,7.32
2017-11-29T00:03:00.383Z,9.57
2017-11-29T00:03:34.905Z,6.40
2017-11-29T00:04:09.094Z,14.43
2017-11-29T00:04:42.834Z,7.35
2017-11-29T00:05:16.569Z,9.30
2017-11-29T00:05:50.743Z,9.95
2017-11-29T00:06:24.477Z,7.60
2017-11-29T00:06:58.968Z,5.60
2017-11-29T00:07:32.701Z,7.45
2017-11-29T00:08:06.468Z,7.10
2017-11-29T00:08:41.015Z,7.80
2017-11-29T00:09:14.758Z,14.05
2017-11-29T00:09:48.495Z,7.03
2017-11-29T00:10:22.253Z,7.10
2017-11-29T00:10:56.737Z,7.35
2017-11-29T00:11:30.460Z,4.93
2017-11-29T00:12:04.951Z,5.85
2017-11-29T00:12:39.444Z,7.50
2017-11-29T00:13:13.532Z,6.30
2017-11-29T00:13:46.920Z,7.87
2017-11-29T00:14:21.431Z,6.50
2017-11-29T00:14:55.173Z,8.13
2017-11-29T00:15:28.884Z,8.63
2017-11-29T00:16:02.627Z,10.07
2017-11-29T00:16:36.357Z,8.57
2017-11-29T00:17:10.086Z,6.28
2017-11-29T00:17:43.815Z,6.30
2017-11-29T00:18:18.336Z,9.60
2017-11-29T00:18:52.066Z,7.78
2017-11-29T00:19:25.788Z,8.38
2017-11-29T00:20:00.287Z,8.20
2017-11-29T00:20:33.688Z,10.45
2017-11-29T00:21:08.199Z,9.90
2017-11-29T00:21:42.682Z,7.35
2017-11-29T00:22:16.408Z,9.68
2017-11-29T00:22:50.130Z,10.32
2017-11-29T00:23:23.916Z,7.80
2017-11-29T00:23:57.642Z,9.18
2017-11-29T00:24:31.164Z,8.50
2017-11-29T00:25:05.663Z,17.95
2017-11-29T00:25:40.149Z,6.95
2017-11-29T00:26:13.878Z,8.73
2017-11-29T00:26:48.367Z,8.02
2017-11-29T00:27:22.108Z,8.02
2017-11-29T00:27:55.845Z,12.77
2017-11-29T00:28:30.365Z,6.60
2017-11-29T00:29:04.891Z,7.03
2017-11-29T00:29:38.629Z,10.75
2017-11-29T00:30:12.358Z,8.07
2017-11-29T00:30:46.537Z,10.02
2017-11-29T00:31:20.270Z,7.95
2017-11-29T00:31:54.325Z,8.05
2017-11-29T00:32:28.049Z,7.37
2017-11-29T00:33:02.577Z,7.53
2017-11-29T00:33:36.953Z,6.62
2017-11-29T00:34:11.450Z,12.55
2017-11-29T00:34:45.200Z,9.88
2017-11-29T00:35:18.294Z,13.35
2017-11-29T00:35:52.025Z,6.95
2017-11-29T00:36:25.866Z,10.75
2017-11-29T00:36:59.032Z,6.70
2017-11-29T00:37:32.440Z,8.00
2017-11-29T00:38:05.856Z,7.15
2017-11-29T00:38:40.022Z,8.68
2017-11-29T00:39:13.445Z,10.20
2017-11-29T00:39:47.951Z,10.38
2017-11-29T00:40:22.136Z,10.82
2017-11-29T00:40:55.206Z,8.52
2017-11-29T00:41:28.277Z,11.45
2017-11-29T00:42:02.014Z,11.68
2017-11-29T00:42:35.418Z,13.07
2017-11-29T00:43:09.146Z,11.18
2017-11-29T00:43:43.222Z,10.23
2017-11-29T00:44:16.952Z,10.02
2017-11-29T00:44:51.142Z,6.75
2017-11-29T00:45:25.342Z,10.13
2017-11-29T00:45:59.072Z,9.25
2017-11-29T00:46:32.801Z,9.65
2017-11-29T00:47:06.520Z,8.23
2017-11-29T00:47:40.260Z,7.78
2017-11-29T00:48:13.993Z,7.45
2017-11-29T00:48:48.073Z,8.75
2017-11-29T00:49:21.165Z,5.00
2017-11-29T00:49:54.907Z,10.80
2017-11-29T00:50:28.650Z,11.93
2017-11-29T00:51:02.370Z,8.00
2017-11-29T00:51:36.854Z,7.53
2017-11-29T00:52:10.259Z,11.02
2017-11-29T00:52:44.768Z,8.80
2017-11-29T00:53:18.525Z,7.97
2017-11-29T00:53:52.614Z,8.40
2017-11-29T00:54:26.020Z,14.38
2017-11-29T00:54:59.761Z,9.30
2017-11-29T00:55:33.490Z,14.30
2017-11-29T00:56:07.233Z,9.68
2017-11-29T00:56:40.954Z,12.63
2017-11-29T00:57:14.688Z,10.52
2017-11-29T00:57:49.197Z,9.15
2017-11-29T00:58:23.493Z,7.18
2017-11-29T00:58:57.049Z,9.30
2017-11-29T00:59:30.580Z,10.20
2017-11-29T01:00:04.886Z,10.20
2017-11-29T01:00:39.206Z,13.52
2017-11-29T01:01:12.733Z,9.32
2017-11-29T01:01:46.265Z,8.55
2017-11-29T01:02:20.565Z,9.82
2017-11-29T01:02:54.881Z,10.07
2017-11-29T01:03:28.425Z,15.57
2017-11-29T01:04:02.016Z,12.70
2017-11-29T01:04:35.567Z,10.23
2017-11-29T01:05:09.303Z,12.43
2017-11-29T01:05:43.278Z,10.40
2017-11-29T01:06:17.018Z,12.40
2017-11-29T01:06:50.764Z,10.57
2017-11-29T01:07:24.497Z,11.20
2017-11-29T01:07:59.001Z,9.30
2017-11-29T01:08:33.512Z,15.55
2017-11-29T01:09:08.383Z,10.45
2017-11-29T01:09:42.139Z,13.25
2017-11-29T01:10:15.878Z,11.35
2017-11-29T01:10:49.618Z,8.93
2017-11-29T01:11:23.348Z,11.50
2017-11-29T01:11:57.090Z,10.00
2017-11-29T01:12:30.829Z,11.55
2017-11-29T01:13:04.559Z,14.15
2017-11-29T01:13:39.082Z,11.02
2017-11-29T01:14:12.841Z,11.50
2017-11-29T01:14:46.574Z,20.08
2017-11-29T01:15:20.302Z,15.30
2017-11-29T01:15:54.037Z,13.00
2017-11-29T01:16:28.545Z,10.15
2017-11-29T01:17:02.294Z,14.45
2017-11-29T01:17:36.040Z,18.27
2017-11-29T01:18:09.783Z,9.18
2017-11-29T01:18:43.516Z,14.20
2017-11-29T01:19:18.064Z,13.10
2017-11-29T01:19:51.797Z,12.63
2017-11-29T01:20:25.533Z,11.00
2017-11-29T01:20:59.283Z,14.98
2017-11-29T01:21:33.788Z,10.90
2017-11-29T01:22:08.314Z,15.77
2017-11-29T01:22:42.104Z,13.35
2017-11-29T01:23:15.855Z,19.50
2017-11-29T01:23:49.569Z,9.82
2017-11-29T01:24:23.584Z,11.75
2017-11-29T01:24:58.088Z,12.82
2017-11-29T01:25:32.407Z,15.25
2017-11-29T01:26:06.138Z,14.35
2017-11-29T01:26:39.878Z,15.98
2017-11-29T01:27:14.392Z,16.00
2017-11-29T01:27:48.131Z,13.93
2017-11-29T01:28:21.869Z,11.88
2017-11-29T01:28:56.364Z,11.88
2017-11-29T01:29:30.908Z,14.85
2017-11-29T01:30:04.321Z,19.60
2017-11-29T01:30:38.067Z,15.63
2017-11-29T01:31:11.809Z,15.63
2017-11-29T01:31:45.544Z,12.82
2017-11-29T01:32:19.854Z,17.98
2017-11-29T01:32:53.619Z,17.25
2017-11-29T01:33:28.121Z,14.25
2017-11-29T01:34:01.947Z,18.50
2017-11-29T01:34:35.737Z,14.75
2017-11-29T01:35:10.268Z,11.25
2017-11-29T01:35:44.023Z,17.23
2017-11-29T01:36:18.535Z,17.70
2017-11-29T01:36:52.862Z,15.23
2017-11-29T01:37:26.609Z,20.70
2017-11-29T01:38:00.368Z,16.83
2017-11-29T01:38:34.108Z,14.63
2017-11-29T01:39:08.619Z,12.82
2017-11-29T01:39:42.981Z,16.73
2017-11-29T01:40:16.733Z,18.83
2017-11-29T01:40:50.474Z,16.42
2017-11-29T01:41:24.227Z,17.42
2017-11-29T01:41:57.984Z,14.65
2017-11-29T01:42:31.713Z,18.17
2017-11-29T01:43:05.471Z,14.02
2017-11-29T01:43:39.991Z,18.65
2017-11-29T01:44:13.611Z,16.80
2017-11-29T01:44:47.185Z,17.37
2017-11-29T01:45:20.938Z,14.18
2017-11-29T01:45:55.272Z,20.12
2017-11-29T01:46:29.029Z,16.92
2017-11-29T01:47:02.574Z,24.23
2017-11-29T01:47:36.129Z,15.77
2017-11-29T01:48:09.881Z,16.05
2017-11-29T01:48:43.636Z,13.38
2017-11-29T01:49:17.196Z,14.60
2017-11-29T01:49:51.740Z,20.02
2017-11-29T01:50:25.485Z,14.52
2017-11-29T01:50:59.997Z,14.00
2017-11-29T01:51:34.501Z,16.00
2017-11-29T01:52:09.014Z,20.52
2017-11-29T01:52:43.515Z,16.48
2017-11-29T01:53:18.028Z,13.07
2017-11-29T01:53:52.367Z,15.77
2017-11-29T01:54:25.921Z,16.65
2017-11-29T01:55:00.278Z,16.87
2017-11-29T01:55:34.035Z,15.70
2017-11-29T01:56:07.802Z,17.75
2017-11-29T01:56:42.003Z,18.10
2017-11-29T01:57:16.333Z,18.90
2017-11-29T01:57:50.085Z,19.10
2017-11-29T01:58:23.825Z,17.45
2017-11-29T01:58:57.580Z,20.88
2017-11-29T01:59:31.404Z,25.83
2017-11-29T02:00:05.178Z,18.45
2017-11-29T02:00:48.714Z,21.12
2017-11-29T02:01:22.196Z,18.10
2017-11-29T02:01:55.940Z,14.10
2017-11-29T02:02:29.683Z,17.77
2017-11-29T02:03:03.245Z,14.93
2017-11-29T02:03:37.753Z,16.87
2017-11-29T02:04:12.305Z,17.77
2017-11-29T02:04:46.048Z,12.37
2017-11-29T02:05:20.047Z,20.77
2017-11-29T02:05:53.915Z,16.23
2017-11-29T02:06:26.813Z,17.37
2017-11-29T02:07:00.562Z,17.27
2017-11-29T02:07:34.321Z,17.02
2017-11-29T02:08:08.828Z,17.92
2017-11-29T02:08:43.334Z,14.52
2017-11-29T02:09:17.842Z,22.10
2017-11-29T02:09:52.355Z,13.13
2017-11-29T02:10:26.918Z,18.17
2017-11-29T02:11:00.657Z,16.27
2017-11-29T02:11:35.166Z,15.85
2017-11-29T02:12:08.910Z,13.80
2017-11-29T02:12:42.648Z,17.58
2017-11-29T02:13:17.157Z,15.73
2017-11-29T02:13:51.670Z,16.02
2017-11-29T02:14:25.422Z,21.02
2017-11-29T02:14:59.162Z,15.15
2017-11-29T02:15:32.624Z,21.83
2017-11-29T02:16:07.174Z,18.48
2017-11-29T02:16:40.921Z,19.15
2017-11-29T02:17:15.436Z,15.27
2017-11-29T02:17:49.963Z,17.65
2017-11-29T02:18:23.726Z,15.68
2017-11-29T02:18:58.260Z,20.60
2017-11-29T02:19:31.694Z,18.80
2017-11-29T02:20:05.114Z,16.83
2017-11-29T02:20:39.078Z,19.62
2017-11-29T02:21:12.500Z,19.65
2017-11-29T02:21:46.348Z,15.90
2017-11-29T02:22:19.440Z,20.42
2017-11-29T02:22:52.517Z,16.65
2017-11-29T02:23:25.605Z,16.00
2017-11-29T02:23:58.682Z,18.42
2017-11-29T02:24:32.545Z,16.98
2017-11-29T02:25:05.669Z,15.75
2017-11-29T02:25:39.561Z,15.57
2017-11-29T02:26:13.414Z,18.80
2017-11-29T02:26:46.499Z,17.83
2017-11-29T02:27:19.565Z,18.35
2017-11-29T02:27:52.642Z,17.67
2017-11-29T02:28:26.052Z,17.92
2017-11-29T02:28:59.915Z,18.37
2017-11-29T02:29:32.990Z,17.77
2017-11-29T02:30:06.074Z,16.67
2017-11-29T02:30:40.435Z,18.80
2017-11-29T02:31:13.597Z,14.43
2017-11-29T02:31:46.687Z,16.50
2017-11-29T02:32:20.123Z,23.02
2017-11-29T02:32:53.213Z,16.42
2017-11-29T02:33:26.410Z,19.17
2017-11-29T02:33:59.486Z,16.30
2017-11-29T02:34:32.561Z,17.92
2017-11-29T02:35:05.633Z,24.45
2017-11-29T02:35:39.797Z,22.40
2017-11-29T02:36:12.883Z,17.85
2017-11-29T02:36:45.975Z,18.58
2017-11-29T02:37:19.822Z,18.70
2017-11-29T02:37:52.899Z,17.20
2017-11-29T02:38:26.316Z,14.57
2017-11-29T02:39:00.165Z,20.27
2017-11-29T02:40:45.165Z,20.12
2017-11-29T02:41:30.123Z,17.48
2017-11-29T02:42:15.068Z,20.30
2017-11-29T02:42:47.974Z,15.68
2017-11-29T02:43:21.081Z,18.75
2017-11-29T02:43:54.218Z,14.32
2017-11-29T02:44:28.069Z,20.52
2017-11-29T02:45:01.149Z,16.70
2017-11-29T02:45:34.701Z,15.52
2017-11-29T02:46:08.162Z,15.07
2017-11-29T02:46:42.018Z,16.62
2017-11-29T02:47:15.570Z,16.73
2017-11-29T02:47:48.650Z,20.12
2017-11-29T02:48:21.732Z,16.02
2017-11-29T02:48:54.829Z,17.23
2017-11-29T02:49:27.918Z,18.27
2017-11-29T02:50:01.030Z,17.25
2017-11-29T02:50:34.126Z,17.50
2017-11-29T02:51:07.237Z,15.50
2017-11-29T02:51:40.695Z,20.42
2017-11-29T02:52:13.793Z,22.98
2017-11-29T02:52:47.203Z,22.25
2017-11-29T02:53:21.719Z,18.15
2017-11-29T02:53:55.566Z,25.98
2017-11-29T02:54:28.682Z,15.95
2017-11-29T02:55:02.533Z,16.15
2017-11-29T02:55:35.646Z,24.23
2017-11-29T02:56:09.523Z,19.00
2017-11-29T02:56:42.647Z,19.67
2017-11-29T02:57:15.739Z,19.77
2017-11-29T02:57:48.824Z,17.23
2017-11-29T02:58:21.898Z,17.02
2017-11-29T02:58:54.798Z,20.48
2017-11-29T02:59:27.884Z,19.10
2017-11-29T03:00:00.965Z,16.92
2017-11-29T03:00:34.058Z,21.12
2017-11-29T03:01:07.908Z,18.50
2017-11-29T03:01:40.996Z,18.80
2017-11-29T03:02:14.114Z,24.48
2017-11-29T03:02:47.525Z,18.25
2017-11-29T03:03:21.392Z,20.50
2017-11-29T03:03:55.902Z,17.73
2017-11-29T03:04:30.409Z,18.37
2017-11-29T03:05:04.939Z,19.65
2017-11-29T03:05:38.734Z,18.92
2017-11-29T03:06:12.321Z,18.83
2017-11-29T03:06:45.876Z,17.37
2017-11-29T03:07:20.465Z,15.57
2017-11-29T03:07:54.974Z,19.45
2017-11-29T03:08:28.527Z,17.00
2017-11-29T03:09:02.091Z,17.45
2017-11-29T03:09:35.838Z,17.95
2017-11-29T03:10:09.585Z,19.95
2017-11-29T03:10:43.329Z,21.15
2017-11-29T03:11:17.087Z,19.17
2017-11-29T03:11:50.825Z,17.42
2017-11-29T03:12:25.454Z,20.95
2017-11-29T03:12:59.253Z,16.95
2017-11-29T03:13:33.002Z,20.65
2017-11-29T03:14:08.263Z,18.73
2017-11-29T03:14:42.025Z,14.70
2017-11-29T03:15:15.780Z,15.60
2017-11-29T03:15:49.537Z,18.08
2017-11-29T03:16:23.281Z,18.50
2017-11-29T03:16:57.043Z,17.35
2017-11-29T03:17:30.830Z,17.15
2017-11-29T03:18:05.016Z,16.98
2017-11-29T03:18:38.753Z,18.30
2017-11-29T03:19:14.030Z,17.10
2017-11-29T03:19:47.569Z,16.40
2017-11-29T03:20:21.338Z,16.20
2017-11-29T03:20:55.099Z,16.12
2017-11-29T03:21:28.830Z,21.60
2017-11-29T03:22:02.581Z,21.67
2017-11-29T03:22:36.177Z,14.30
2017-11-29T03:23:09.923Z,15.18
2017-11-29T03:23:43.752Z,17.70
2017-11-29T03:24:17.938Z,17.52
2017-11-29T03:24:52.453Z,16.87
2017-11-29T03:25:26.246Z,17.95
2017-11-29T03:26:00.760Z,25.45
2017-11-29T03:26:35.268Z,16.48
2017-11-29T03:27:09.781Z,19.65
2017-11-29T03:27:43.912Z,15.50
2017-11-29T03:28:17.649Z,17.27
2017-11-29T03:28:51.393Z,18.55
2017-11-29T03:29:25.129Z,19.87
2017-11-29T03:29:58.543Z,16.20
2017-11-29T03:30:32.293Z,23.73
2017-11-29T03:31:06.047Z,15.60
2017-11-29T03:31:39.808Z,16.92
2017-11-29T03:32:14.323Z,28.65
2017-11-29T03:32:48.978Z,16.17
2017-11-29T03:33:22.737Z,20.23
2017-11-29T03:33:56.481Z,17.90
2017-11-29T03:34:30.310Z,19.87
2017-11-29T03:35:04.824Z,19.00
2017-11-29T03:35:38.580Z,23.62
2017-11-29T03:36:12.373Z,17.73
2017-11-29T03:36:46.119Z,19.37
2017-11-29T03:37:19.869Z,19.40
2017-11-29T03:37:54.415Z,22.05
2017-11-29T03:38:28.175Z,16.62
2017-11-29T03:39:02.686Z,17.48
2017-11-29T03:39:37.184Z,16.85
2017-11-29T03:40:10.923Z,17.12
2017-11-29T03:40:44.721Z,18.75
2017-11-29T03:41:18.455Z,15.70
2017-11-29T03:41:52.962Z,15.85
2017-11-29T03:42:27.477Z,17.85
2017-11-29T03:43:01.569Z,18.27
2017-11-29T03:43:35.326Z,18.42
2017-11-29T03:44:09.073Z,19.83
2017-11-29T03:44:44.181Z,17.42
2017-11-29T03:45:18.684Z,18.00
2017-11-29T03:45:52.098Z,17.58
2017-11-29T03:46:25.910Z,18.15
2017-11-29T03:46:59.666Z,18.62
2017-11-29T03:47:34.161Z,22.10
2017-11-29T03:48:08.255Z,19.52
2017-11-29T03:48:42.001Z,19.62
2017-11-29T03:49:15.758Z,19.05
2017-11-29T03:49:50.292Z,19.87
2017-11-29T03:50:24.060Z,17.52
2017-11-29T03:50:58.572Z,19.00
2017-11-29T03:51:33.097Z,16.60
2017-11-29T03:52:06.854Z,19.05
2017-11-29T03:52:40.659Z,17.65
2017-11-29T03:53:15.211Z,16.92
2017-11-29T03:53:48.963Z,21.17
2017-11-29T03:54:23.473Z,17.42
2017-11-29T03:54:57.991Z,21.58
2017-11-29T03:55:32.501Z,18.55
2017-11-29T03:56:06.280Z,19.15
2017-11-29T03:56:40.789Z,18.60
2017-11-29T03:57:15.901Z,18.40
2017-11-29T03:57:49.646Z,19.62
2017-11-29T03:58:23.653Z,26.20
2017-11-29T03:58:57.407Z,23.25
2017-11-29T03:59:31.142Z,17.90
2017-11-29T04:00:04.555Z,20.35
2017-11-29T04:00:39.077Z,18.85
2017-11-29T04:01:13.705Z,19.67
2017-11-29T04:01:47.471Z,20.42
2017-11-29T04:02:21.990Z,23.35
2017-11-29T04:02:56.552Z,23.40
2017-11-29T04:03:30.345Z,21.70
2017-11-29T04:04:04.094Z,22.02
2017-11-29T04:04:38.617Z,18.58
2017-11-29T04:05:12.357Z,23.30
2017-11-29T04:05:46.095Z,24.80
2017-11-29T04:06:19.887Z,21.20
2017-11-29T04:06:54.063Z,26.85
2017-11-29T04:07:27.467Z,27.80
2017-11-29T04:08:00.546Z,17.77
2017-11-29T04:08:34.318Z,22.60
2017-11-29T04:09:08.503Z,19.80
2017-11-29T04:09:41.576Z,20.33
2017-11-29T04:10:14.657Z,16.75
2017-11-29T04:10:47.733Z,24.63
2017-11-29T04:11:20.836Z,24.37
2017-11-29T04:11:54.670Z,28.85
2017-11-29T04:12:27.753Z,18.42
2017-11-29T04:13:01.173Z,19.70
2017-11-29T04:13:36.017Z,18.42
2017-11-29T04:14:09.428Z,20.45
2017-11-29T04:14:43.185Z,20.62
2017-11-29T04:15:16.270Z,22.73
2017-11-29T04:15:49.350Z,18.73
2017-11-29T04:16:23.085Z,24.12
2017-11-29T04:16:56.179Z,20.77
2017-11-29T04:17:29.687Z,23.23
2017-11-29T04:18:03.106Z,18.45
2017-11-29T04:18:36.885Z,24.45
2017-11-29T04:19:10.634Z,20.08
2017-11-29T04:19:44.513Z,17.20
2017-11-29T04:20:17.593Z,22.60
2017-11-29T04:20:51.780Z,21.25
2017-11-29T04:21:25.203Z,20.45
2017-11-29T04:21:59.389Z,17.23
2017-11-29T04:22:33.979Z,21.77
2017-11-29T04:23:07.051Z,22.13
2017-11-29T04:23:40.842Z,21.67
2017-11-29T04:24:13.936Z,21.48
2017-11-29T04:24:47.018Z,23.00
2017-11-29T04:25:20.422Z,21.40
2017-11-29T04:25:53.842Z,19.77
2017-11-29T04:26:27.250Z,17.87
2017-11-29T04:27:00.338Z,16.92
2017-11-29T04:27:34.519Z,20.80
2017-11-29T04:28:07.595Z,19.52
2017-11-29T04:28:41.077Z,20.80
2017-11-29T04:29:14.154Z,18.55
2017-11-29T04:29:47.573Z,24.87
2017-11-29T04:30:21.562Z,22.50
2017-11-29T04:30:56.085Z,22.60
2017-11-29T04:31:30.603Z,20.60
2017-11-29T04:32:05.118Z,24.55
2017-11-29T04:32:38.861Z,20.88
2017-11-29T04:33:12.617Z,20.55
2017-11-29T04:33:46.395Z,21.87
2017-11-29T04:34:21.990Z,20.80
2017-11-29T04:34:55.737Z,21.12
2017-11-29T04:35:29.506Z,20.20
2017-11-29T04:36:04.009Z,24.63
2017-11-29T04:36:38.518Z,23.80
2017-11-29T04:37:12.076Z,20.37
2017-11-29T04:37:45.634Z,23.48
2017-11-29T04:38:19.190Z,20.52
2017-11-29T04:38:53.246Z,24.02
2017-11-29T04:39:27.002Z,23.27
2017-11-29T04:40:00.770Z,20.85
2017-11-29T04:40:34.510Z,22.27
2017-11-29T04:41:08.269Z,25.62
2017-11-29T04:41:42.018Z,19.02
2017-11-29T04:42:16.543Z,22.62
2017-11-29T04:42:51.079Z,23.52
2017-11-29T04:43:24.643Z,19.42
2017-11-29T04:43:58.600Z,21.10
2017-11-29T04:44:32.352Z,23.00
2017-11-29T04:45:06.130Z,19.75
2017-11-29T04:45:40.651Z,23.55
2017-11-29T04:46:14.423Z,18.40
2017-11-29T04:46:48.928Z,27.65
2017-11-29T04:47:23.442Z,18.95
2017-11-29T04:47:57.182Z,22.85
2017-11-29T04:48:30.274Z,23.83
2017-11-29T04:49:03.665Z,17.15
2017-11-29T04:49:36.741Z,24.33
2017-11-29T04:50:10.597Z,21.37
2017-11-29T04:50:43.690Z,25.27
2017-11-29T04:51:16.767Z,22.15
2017-11-29T04:51:50.166Z,26.08
2017-11-29T04:52:24.010Z,20.92
2017-11-29T04:52:57.100Z,19.02
2017-11-29T04:53:30.181Z,21.50
2017-11-29T04:54:03.883Z,24.23
2017-11-29T04:54:36.977Z,21.40
2017-11-29T04:55:10.385Z,17.45
2017-11-29T04:55:44.235Z,20.10
2017-11-29T04:56:18.072Z,19.65
2017-11-29T04:56:52.273Z,21.12
2017-11-29T04:57:25.701Z,19.92
2017-11-29T04:57:59.110Z,20.02
2017-11-29T04:58:32.329Z,22.65
2017-11-29T04:59:05.368Z,24.83
2017-11-29T04:59:38.454Z,19.58
2017-11-29T05:00:12.645Z,19.02
2017-11-29T05:00:45.729Z,23.80
2017-11-29T05:01:20.209Z,18.20
2017-11-29T05:01:53.303Z,20.75
2017-11-29T05:02:26.381Z,20.95
2017-11-29T05:02:59.804Z,19.83
2017-11-29T05:03:32.709Z,17.90
2017-11-29T05:04:06.161Z,19.02
2017-11-29T05:04:39.574Z,16.50
2017-11-29T05:05:13.322Z,21.70
2017-11-29T05:05:46.398Z,21.27
2017-11-29T05:06:19.294Z,21.17
2017-11-29T05:06:52.380Z,16.52
2017-11-29T05:07:25.453Z,22.02
2017-11-29T05:07:58.852Z,21.42
2017-11-29T05:08:31.753Z,16.62
2017-11-29T05:09:04.839Z,21.45
2017-11-29T05:09:38.701Z,21.77
2017-11-29T05:10:12.229Z,26.40
2017-11-29T05:10:46.402Z,18.92
2017-11-29T05:11:19.323Z,19.20
2017-11-29T05:11:52.233Z,17.83
2017-11-29T05:12:25.350Z,18.20
2017-11-29T05:12:58.435Z,23.48
2017-11-29T05:13:31.846Z,18.23
2017-11-29T05:14:04.746Z,17.35
2017-11-29T05:14:38.471Z,18.90
2017-11-29T05:15:11.544Z,17.02
2017-11-29T05:15:45.439Z,22.67
2017-11-29T05:16:18.871Z,21.83
2017-11-29T05:16:51.954Z,20.52
2017-11-29T05:17:25.037Z,18.08
2017-11-29T05:17:58.111Z,19.58
2017-11-29T05:18:31.191Z,17.75
2017-11-29T05:19:04.600Z,15.65
2017-11-29T05:19:38.748Z,20.65
2017-11-29T05:20:11.834Z,19.98
2017-11-29T05:20:44.752Z,24.27
2017-11-29T05:21:18.632Z,20.05
2017-11-29T05:21:52.481Z,19.58
2017-11-29T05:22:25.556Z,16.50
2017-11-29T05:22:58.877Z,25.70
2017-11-29T05:23:32.717Z,20.23
2017-11-29T05:24:06.116Z,23.33
2017-11-29T05:24:39.247Z,19.98
2017-11-29T05:25:13.093Z,24.25
2017-11-29T05:25:46.169Z,19.48
2017-11-29T05:26:19.070Z,20.90
2017-11-29T05:26:52.291Z,20.42
2017-11-29T05:27:25.361Z,21.15
2017-11-29T05:27:58.451Z,19.42
2017-11-29T05:28:31.858Z,20.75
2017-11-29T05:29:04.975Z,19.73
2017-11-29T05:29:39.291Z,21.80
2017-11-29T05:30:12.945Z,17.98
2017-11-29T05:30:45.839Z,23.42
2017-11-29T05:31:19.676Z,21.58
2017-11-29T05:31:53.417Z,20.30
2017-11-29T05:32:26.634Z,20.50
2017-11-29T05:32:59.868Z,21.67
2017-11-29T05:33:32.750Z,26.40
2017-11-29T05:34:06.585Z,21.25
2017-11-29T05:34:39.805Z,20.90
2017-11-29T05:35:12.892Z,21.58
2017-11-29T05:35:47.076Z,21.23
2017-11-29T05:36:19.965Z,19.20
2017-11-29T05:36:52.841Z,22.50
2017-11-29T05:37:26.678Z,23.05
2017-11-29T05:37:59.735Z,23.70
2017-11-29T05:38:33.003Z,24.65
2017-11-29T05:39:06.986Z,23.80
2017-11-29T05:39:41.157Z,19.48
2017-11-29T05:40:14.564Z,22.35
2017-11-29T05:40:47.649Z,26.12
2017-11-29T05:41:21.486Z,25.48
2017-11-29T05:41:54.562Z,25.73
2017-11-29T05:42:27.999Z,18.50
2017-11-29T05:43:01.845Z,21.85
2017-11-29T05:43:34.941Z,20.75
2017-11-29T05:44:08.345Z,24.63
2017-11-29T05:44:41.546Z,21.62
2017-11-29T05:45:15.548Z,25.10
2017-11-29T05:45:48.444Z,22.23
2017-11-29T05:46:21.926Z,19.60
2017-11-29T05:46:55.026Z,23.08
2017-11-29T05:47:28.868Z,21.85
2017-11-29T05:48:01.956Z,21.05
2017-11-29T05:48:35.023Z,21.77
2017-11-29T05:49:08.113Z,24.70
2017-11-29T05:49:42.182Z,24.12
2017-11-29T05:50:16.019Z,21.65
2017-11-29T05:50:49.100Z,23.20
2017-11-29T05:51:22.190Z,25.62
2017-11-29T05:51:55.596Z,20.05
2017-11-29T05:52:28.666Z,19.20
2017-11-29T05:53:01.767Z,21.48
2017-11-29T05:53:35.731Z,20.48
2017-11-29T05:54:08.824Z,22.02
2017-11-29T05:54:41.902Z,24.48
2017-11-29T05:55:16.120Z,22.77
2017-11-29T05:55:49.976Z,20.08
2017-11-29T05:56:23.398Z,22.27
2017-11-29T05:56:57.244Z,25.25
2017-11-29T05:57:30.657Z,23.20
2017-11-29T05:58:04.834Z,20.62
2017-11-29T05:58:38.254Z,21.17
2017-11-29T05:59:12.449Z,22.37
2017-11-29T05:59:46.632Z,20.50
2017-11-29T06:00:19.921Z,18.80
2017-11-29T06:00:52.997Z,25.80
2017-11-29T06:01:27.190Z,21.70
2017-11-29T06:02:00.275Z,18.20
2017-11-29T06:02:33.276Z,23.17
2017-11-29T06:03:06.375Z,21.25
2017-11-29T06:03:39.441Z,24.05
2017-11-29T06:04:13.006Z,22.05
2017-11-29T06:04:46.666Z,19.70
2017-11-29T06:05:19.967Z,32.25
2017-11-29T06:05:53.969Z,21.08
2017-11-29T06:06:28.166Z,19.92
2017-11-29T06:07:02.349Z,23.23
2017-11-29T06:07:35.252Z,22.87
2017-11-29T06:08:09.000Z,18.35
2017-11-29T06:08:42.085Z,21.83
2017-11-29T06:09:15.174Z,19.90
2017-11-29T06:09:49.364Z,19.37
2017-11-29T06:10:22.483Z,20.73
2017-11-29T06:10:56.234Z,22.98
2017-11-29T06:11:29.661Z,21.15
2017-11-29T06:12:03.069Z,23.55
2017-11-29T06:12:36.508Z,21.45
2017-11-29T06:13:11.315Z,20.42
2017-11-29T06:13:45.494Z,22.48
2017-11-29T06:14:18.566Z,24.25
2017-11-29T06:14:51.981Z,25.00
2017-11-29T06:15:26.191Z,21.77
2017-11-29T06:16:00.690Z,25.27
2017-11-29T06:16:35.212Z,23.35
2017-11-29T06:17:08.631Z,21.73
2017-11-29T06:17:42.371Z,26.17
2017-11-29T06:18:16.098Z,24.25
2017-11-29T06:18:48.979Z,22.08
2017-11-29T06:19:22.390Z,22.92
2017-11-29T06:19:56.146Z,20.67
2017-11-29T06:20:29.600Z,19.87
2017-11-29T06:21:04.122Z,20.75
2017-11-29T06:21:37.294Z,22.90
2017-11-29T06:22:11.142Z,26.30
2017-11-29T06:22:44.230Z,27.92
2017-11-29T06:23:17.976Z,23.95
2017-11-29T06:23:51.064Z,24.92
2017-11-29T06:24:24.797Z,22.75
2017-11-29T06:24:59.355Z,23.27
2017-11-29T06:25:33.503Z,21.45
2017-11-29T06:26:07.050Z,27.70
2017-11-29T06:26:40.812Z,31.92
2017-11-29T06:27:14.232Z,22.45
2017-11-29T06:27:47.641Z,22.15
2017-11-29T06:28:21.051Z,21.90
2017-11-29T06:28:55.466Z,26.27
2017-11-29T06:29:30.078Z,28.10
2017-11-29T06:30:03.500Z,20.00
2017-11-29T06:30:37.634Z,22.33
2017-11-29T06:31:11.192Z,24.20
2017-11-29T06:31:45.786Z,23.70
2017-11-29T06:32:19.535Z,28.62
2017-11-29T06:32:54.041Z,25.42
2017-11-29T06:33:28.558Z,24.33
2017-11-29T06:34:02.873Z,26.02
2017-11-29T06:34:37.280Z,26.90
2017-11-29T06:35:11.791Z,29.02
2017-11-29T06:35:46.321Z,24.25
2017-11-29T06:36:20.051Z,25.45
2017-11-29T06:36:53.789Z,31.30
2017-11-29T06:37:27.270Z,22.80
2017-11-29T06:38:01.007Z,23.45
2017-11-29T06:38:34.746Z,25.45
2017-11-29T06:39:10.043Z,24.98
2017-11-29T06:39:43.795Z,20.37
2017-11-29T06:40:17.546Z,22.02
2017-11-29T06:40:51.361Z,21.27
2017-11-29T06:41:25.080Z,23.65
2017-11-29T06:41:58.817Z,24.17
2017-11-29T06:42:33.330Z,19.45
2017-11-29T06:43:07.837Z,21.73
2017-11-29T06:43:42.499Z,25.67
2017-11-29T06:44:16.240Z,26.05
2017-11-29T06:44:49.971Z,25.92
2017-11-29T06:45:23.730Z,25.42
2017-11-29T06:45:57.790Z,22.37
2017-11-29T06:46:31.538Z,24.15
2017-11-29T06:47:04.982Z,22.15
2017-11-29T06:47:38.748Z,22.90
2017-11-29T06:48:12.496Z,24.33
2017-11-29T06:48:46.235Z,20.20
2017-11-29T06:49:19.986Z,30.27
2017-11-29T06:49:53.749Z,21.05
2017-11-29T06:50:27.486Z,24.15
2017-11-29T06:51:01.245Z,25.70
2017-11-29T06:51:35.738Z,23.70
2017-11-29T06:52:10.247Z,21.35
2017-11-29T06:52:43.985Z,24.63
2017-11-29T06:53:17.733Z,23.73
2017-11-29T06:53:51.540Z,24.80
2017-11-29T06:54:26.052Z,28.83
2017-11-29T06:54:59.798Z,21.05
2017-11-29T06:55:33.560Z,21.77
2017-11-29T06:56:07.329Z,26.12
2017-11-29T06:56:42.124Z,32.38
2017-11-29T06:57:16.635Z,24.00
2017-11-29T06:57:51.147Z,25.48
2017-11-29T06:58:25.669Z,20.00
2017-11-29T06:59:00.184Z,27.27
2017-11-29T06:59:33.949Z,23.48
2017-11-29T07:00:08.521Z,23.15
2017-11-29T07:00:42.297Z,19.87
2017-11-29T07:01:16.441Z,26.80
2017-11-29T07:01:49.889Z,24.45
2017-11-29T07:02:23.630Z,25.37
2017-11-29T07:02:58.157Z,19.77
2017-11-29T07:03:31.913Z,21.77
2017-11-29T07:04:05.644Z,25.88
2017-11-29T07:04:39.407Z,24.12
2017-11-29T07:05:13.972Z,20.37
2017-11-29T07:05:47.737Z,22.02
2017-11-29T07:06:22.294Z,22.17
2017-11-29T07:06:56.042Z,22.65
2017-11-29T07:07:29.804Z,22.80
2017-11-29T07:08:04.331Z,23.30
2017-11-29T07:08:38.830Z,29.42
2017-11-29T07:09:13.357Z,24.85
2017-11-29T07:09:47.106Z,27.73
2017-11-29T07:10:20.837Z,33.70
2017-11-29T07:10:54.591Z,23.67
2017-11-29T07:11:28.397Z,19.90
2017-11-29T07:12:02.487Z,23.30
2017-11-29T07:12:36.263Z,24.52
2017-11-29T07:13:10.044Z,25.48
2017-11-29T07:13:43.810Z,22.52
2017-11-29T07:14:17.572Z,29.67
2017-11-29T07:14:52.087Z,26.58
2017-11-29T07:15:25.842Z,19.62
2017-11-29T07:15:59.586Z,23.65
2017-11-29T07:16:33.356Z,26.27
2017-11-29T07:17:07.877Z,23.27
2017-11-29T07:17:42.394Z,21.77
2017-11-29T07:18:16.136Z,22.35